Denver, CO

7:14 PM MST on December 05, 2016 (GMT -0700)
Front Range | | Change Station
Active Advisory: Winter Weather Advisory

Elev 5512 ft 39.79 °N, 104.54 °W | Updated 24 minutes ago

Mostly Cloudy
Mostly Cloudy
27 °F
Feels Like 14 °F
N
17
Wind Variable Wind from North
Gusts 23 mph

Today
High -- | Low -- °F
--% Chance of Precip.
Yesterday
High -- | Low -- °F
Precip. -- in
Pressure 29.82 in
Visibility 6.0 miles
Clouds Mostly Cloudy 11000 ft
Windchill 14 °F
Dew Point 0 °F
Humidity 31%
Rainfall 0.00 in
Snow Depth Not available.
7:04 AM 4:33 PM
Waxing Crescent, 37% visible
METAR KFTG 060150Z 01015G20KT 6SM BKN110 M03/M18 A2982
Pressure 29.82 in
Visibility 6.0 miles
Clouds Mostly Cloudy 11000 ft
Windchill 14 °F
Dew Point 0 °F
Humidity 31%
Rainfall 0.00 in
Snow Depth Not available.
7:04 AM 4:33 PM
Waxing Crescent, 37% visible
METAR KFTG 060150Z 01015G20KT 6SM BKN110 M03/M18 A2982

10-Day Weather Forecast

Almanac

Astronomy

Dec. 05, 2016 Rise Set
Actual Time
Civil Twilight
Nautical Twilight
Astronomical Twilight
Moon
Length of Visible Light
Length of Day
Tomorrow will be .
, % of the Moon is Illuminated

Today's Extremes

State Highs State Lows

Community

WunderPhotos

Upload Photos

1,955,901 photos uploaded!

WunderBlog® & News

Nearby

Air Quality

  Air Quality AQ Index Pollutant
Not available.

Snow Depth

Station Depth Elevation

Earthquake Activity

City Distance Mag. Time & Date
Minimum magnitude displayed is 2.5.

Coastal Water Temperatures

Place Temperature

Stations

Nearby Weather Stations

Station Location Temp. Windchill Dew Point Humidity Wind Precip. Elev Updated Type
                   

Watches & Warnings

Winter Weather Advisory
Issued: 2:48 PM MST Dec. 5, 2016 – National Weather Service

... Winter Weather Advisory in effect from 5 PM Tuesday to noon
MST Wednesday...

The National Weather Service in Denver has issued a Winter
Weather Advisory for snowfall, which is in effect from 5 PM
Tuesday to noon MST Wednesday.

* Timing... light snow will start Tuesday around rush hour and
increase in intensity by Tuesday evening and continue through
Wednesday afternoon.

* Snow accumulations... snowfall amounts of 2 to 5 inches will be
possible with higher amounts west of I-25

* wind/visibility... winds will be light through the
period... however snowfall intensity will increase Tuesday night
and create for some reduced visibility.

* Impacts... main impacts will be hazardous driving conditions with
increasing snow intensity Tuesday evening towards the end of
rush hour. Caution is advised for drivers.


Precautionary/preparedness actions...

A Winter Weather Advisory for snow means that periods of snow
will cause primarily travel difficulties. Be prepared for snow
covered roads and limited visibilities... and use caution while
driving.